sensor_id;sensor_type;location;lat;lon;timestamp;P1;durP1;ratioP1;P2;durP2;ratioP2
68940;SDS011;55982;51.476;7.552;2023-04-03T00:01:18;9.98;;;5.85;;
68940;SDS011;55982;51.476;7.552;2023-04-03T00:03:43;11.90;;;6.68;;
68940;SDS011;55982;51.476;7.552;2023-04-03T00:06:09;17.45;;;7.28;;
68940;SDS011;55982;51.476;7.552;2023-04-03T00:08:37;12.43;;;7.13;;
68940;SDS011;55982;51.476;7.552;2023-04-03T00:11:04;14.70;;;7.72;;
68940;SDS011;55982;51.476;7.552;2023-04-03T00:13:29;16.85;;;8.07;;
68940;SDS011;55982;51.476;7.552;2023-04-03T00:15:55;14.60;;;7.72;;
68940;SDS011;55982;51.476;7.552;2023-04-03T00:18:21;18.10;;;7.97;;
68940;SDS011;55982;51.476;7.552;2023-04-03T00:20:47;12.85;;;7.47;;
68940;SDS011;55982;51.476;7.552;2023-04-03T00:23:13;14.52;;;7.47;;
68940;SDS011;55982;51.476;7.552;2023-04-03T00:25:38;18.30;;;7.43;;
68940;SDS011;55982;51.476;7.552;2023-04-03T00:28:04;11.25;;;6.75;;
68940;SDS011;55982;51.476;7.552;2023-04-03T00:30:29;13.45;;;6.75;;
68940;SDS011;55982;51.476;7.552;2023-04-03T00:32:55;10.57;;;6.68;;
68940;SDS011;55982;51.476;7.552;2023-04-03T00:35:21;12.77;;;7.35;;
68940;SDS011;55982;51.476;7.552;2023-04-03T00:37:47;15.90;;;7.35;;
68940;SDS011;55982;51.476;7.552;2023-04-03T00:40:16;12.77;;;6.72;;
68940;SDS011;55982;51.476;7.552;2023-04-03T00:42:42;12.15;;;6.90;;
68940;SDS011;55982;51.476;7.552;2023-04-03T00:47:42;12.35;;;6.45;;
68940;SDS011;55982;51.476;7.552;2023-04-03T00:50:08;8.82;;;5.90;;
68940;SDS011;55982;51.476;7.552;2023-04-03T00:52:34;14.27;;;6.97;;
68940;SDS011;55982;51.476;7.552;2023-04-03T00:55:04;12.88;;;5.82;;
68940;SDS011;55982;51.476;7.552;2023-04-03T00:57:32;12.07;;;6.07;;
68940;SDS011;55982;51.476;7.552;2023-04-03T00:59:59;10.82;;;5.43;;
68940;SDS011;55982;51.476;7.552;2023-04-03T01:02:29;10.95;;;5.43;;
68940;SDS011;55982;51.476;7.552;2023-04-03T01:04:55;10.95;;;4.80;;
68940;SDS011;55982;51.476;7.552;2023-04-03T01:07:24;7.60;;;4.55;;
68940;SDS011;55982;51.476;7.552;2023-04-03T01:09:53;9.00;;;4.50;;
68940;SDS011;55982;51.476;7.552;2023-04-03T01:14:56;7.47;;;3.60;;
68940;SDS011;55982;51.476;7.552;2023-04-03T01:22:41;9.23;;;3.30;;
68940;SDS011;55982;51.476;7.552;2023-04-03T01:25:16;6.95;;;3.70;;
68940;SDS011;55982;51.476;7.552;2023-04-03T01:27:42;7.38;;;3.20;;
68940;SDS011;55982;51.476;7.552;2023-04-03T01:30:07;8.43;;;3.25;;
68940;SDS011;55982;51.476;7.552;2023-04-03T01:32:33;7.70;;;3.30;;
68940;SDS011;55982;51.476;7.552;2023-04-03T01:34:58;8.05;;;3.00;;
68940;SDS011;55982;51.476;7.552;2023-04-03T01:37:24;6.60;;;3.47;;
68940;SDS011;55982;51.476;7.552;2023-04-03T01:39:49;7.28;;;3.08;;
68940;SDS011;55982;51.476;7.552;2023-04-03T01:42:15;9.48;;;3.55;;
68940;SDS011;55982;51.476;7.552;2023-04-03T01:44:40;5.30;;;2.70;;
68940;SDS011;55982;51.476;7.552;2023-04-03T01:47:06;8.52;;;3.17;;
68940;SDS011;55982;51.476;7.552;2023-04-03T01:49:32;6.68;;;3.45;;
68940;SDS011;55982;51.476;7.552;2023-04-03T01:51:57;9.15;;;3.50;;
68940;SDS011;55982;51.476;7.552;2023-04-03T01:54:22;7.63;;;3.08;;
68940;SDS011;55982;51.476;7.552;2023-04-03T01:56:48;5.53;;;2.97;;
68940;SDS011;55982;51.476;7.552;2023-04-03T01:59:13;6.72;;;3.28;;
68940;SDS011;55982;51.476;7.552;2023-04-03T02:01:41;9.70;;;3.00;;
68940;SDS011;55982;51.476;7.552;2023-04-03T02:04:08;6.85;;;3.13;;
68940;SDS011;55982;51.476;7.552;2023-04-03T02:06:33;7.47;;;2.90;;
68940;SDS011;55982;51.476;7.552;2023-04-03T02:08:59;10.00;;;2.92;;
68940;SDS011;55982;51.476;7.552;2023-04-03T02:11:25;9.75;;;3.45;;
68940;SDS011;55982;51.476;7.552;2023-04-03T02:13:50;6.30;;;2.50;;
68940;SDS011;55982;51.476;7.552;2023-04-03T02:16:16;11.00;;;3.45;;
68940;SDS011;55982;51.476;7.552;2023-04-03T02:18:41;8.57;;;2.58;;
68940;SDS011;55982;51.476;7.552;2023-04-03T02:21:06;8.10;;;3.00;;
68940;SDS011;55982;51.476;7.552;2023-04-03T02:23:32;9.88;;;2.97;;
68940;SDS011;55982;51.476;7.552;2023-04-03T02:26:31;7.85;;;3.10;;
68940;SDS011;55982;51.476;7.552;2023-04-03T02:28:50;9.93;;;3.00;;
68940;SDS011;55982;51.476;7.552;2023-04-03T02:31:16;10.65;;;2.88;;
68940;SDS011;55982;51.476;7.552;2023-04-03T02:33:42;4.07;;;2.55;;
68940;SDS011;55982;51.476;7.552;2023-04-03T02:36:08;6.72;;;3.15;;
68940;SDS011;55982;51.476;7.552;2023-04-03T02:38:33;5.80;;;2.67;;
68940;SDS011;55982;51.476;7.552;2023-04-03T02:41:04;9.20;;;3.05;;
68940;SDS011;55982;51.476;7.552;2023-04-03T02:43:31;8.68;;;3.20;;
68940;SDS011;55982;51.476;7.552;2023-04-03T02:45:57;9.35;;;3.03;;
68940;SDS011;55982;51.476;7.552;2023-04-03T02:48:22;6.03;;;2.35;;
68940;SDS011;55982;51.476;7.552;2023-04-03T02:50:51;8.13;;;2.83;;
68940;SDS011;55982;51.476;7.552;2023-04-03T02:53:16;5.85;;;2.95;;
68940;SDS011;55982;51.476;7.552;2023-04-03T02:55:42;9.98;;;2.85;;
68940;SDS011;55982;51.476;7.552;2023-04-03T02:58:07;8.75;;;3.10;;
68940;SDS011;55982;51.476;7.552;2023-04-03T03:00:33;8.95;;;3.38;;
68940;SDS011;55982;51.476;7.552;2023-04-03T03:02:58;13.82;;;3.17;;
68940;SDS011;55982;51.476;7.552;2023-04-03T03:05:24;5.70;;;3.03;;
68940;SDS011;55982;51.476;7.552;2023-04-03T03:07:50;7.28;;;2.95;;
68940;SDS011;55982;51.476;7.552;2023-04-03T03:10:15;6.57;;;2.80;;
68940;SDS011;55982;51.476;7.552;2023-04-03T03:12:41;5.78;;;2.70;;
68940;SDS011;55982;51.476;7.552;2023-04-03T03:15:07;8.18;;;3.05;;
68940;SDS011;55982;51.476;7.552;2023-04-03T03:17:32;7.35;;;3.13;;
68940;SDS011;55982;51.476;7.552;2023-04-03T03:19:58;6.40;;;3.15;;
68940;SDS011;55982;51.476;7.552;2023-04-03T03:22:23;8.70;;;3.65;;
68940;SDS011;55982;51.476;7.552;2023-04-03T03:24:49;8.70;;;2.97;;
68940;SDS011;55982;51.476;7.552;2023-04-03T03:27:14;11.02;;;3.20;;
68940;SDS011;55982;51.476;7.552;2023-04-03T03:29:41;14.57;;;3.42;;
68940;SDS011;55982;51.476;7.552;2023-04-03T03:32:06;8.05;;;3.38;;
68940;SDS011;55982;51.476;7.552;2023-04-03T03:34:32;11.02;;;3.33;;
68940;SDS011;55982;51.476;7.552;2023-04-03T03:36:57;9.90;;;2.92;;
68940;SDS011;55982;51.476;7.552;2023-04-03T03:39:23;8.88;;;3.42;;
68940;SDS011;55982;51.476;7.552;2023-04-03T03:41:48;8.25;;;3.28;;
68940;SDS011;55982;51.476;7.552;2023-04-03T03:44:14;5.88;;;3.08;;
68940;SDS011;55982;51.476;7.552;2023-04-03T03:46:40;9.00;;;3.20;;
68940;SDS011;55982;51.476;7.552;2023-04-03T03:49:05;11.25;;;3.90;;
68940;SDS011;55982;51.476;7.552;2023-04-03T03:51:30;8.30;;;3.50;;
68940;SDS011;55982;51.476;7.552;2023-04-03T03:53:56;5.93;;;3.10;;
68940;SDS011;55982;51.476;7.552;2023-04-03T03:56:21;8.43;;;3.22;;
68940;SDS011;55982;51.476;7.552;2023-04-03T03:58:47;7.25;;;3.33;;
68940;SDS011;55982;51.476;7.552;2023-04-03T04:01:12;9.65;;;3.58;;
68940;SDS011;55982;51.476;7.552;2023-04-03T04:03:37;6.57;;;3.38;;
68940;SDS011;55982;51.476;7.552;2023-04-03T04:06:03;12.20;;;3.70;;
68940;SDS011;55982;51.476;7.552;2023-04-03T04:08:28;12.80;;;4.68;;
68940;SDS011;55982;51.476;7.552;2023-04-03T04:10:53;9.15;;;3.15;;
68940;SDS011;55982;51.476;7.552;2023-04-03T04:13:19;10.07;;;3.80;;
68940;SDS011;55982;51.476;7.552;2023-04-03T04:15:44;12.10;;;3.50;;
68940;SDS011;55982;51.476;7.552;2023-04-03T04:18:10;7.82;;;3.78;;
68940;SDS011;55982;51.476;7.552;2023-04-03T04:20:35;10.38;;;3.78;;
68940;SDS011;55982;51.476;7.552;2023-04-03T04:23:01;10.80;;;4.30;;
68940;SDS011;55982;51.476;7.552;2023-04-03T04:25:26;9.23;;;3.75;;
68940;SDS011;55982;51.476;7.552;2023-04-03T04:27:51;9.52;;;3.85;;
68940;SDS011;55982;51.476;7.552;2023-04-03T04:30:17;9.05;;;3.60;;
68940;SDS011;55982;51.476;7.552;2023-04-03T04:32:42;15.20;;;4.85;;
68940;SDS011;55982;51.476;7.552;2023-04-03T04:35:08;14.50;;;4.30;;
68940;SDS011;55982;51.476;7.552;2023-04-03T04:37:34;6.72;;;3.75;;
68940;SDS011;55982;51.476;7.552;2023-04-03T04:39:59;7.70;;;4.22;;
68940;SDS011;55982;51.476;7.552;2023-04-03T04:42:25;10.65;;;4.00;;
68940;SDS011;55982;51.476;7.552;2023-04-03T04:44:50;12.00;;;4.88;;
68940;SDS011;55982;51.476;7.552;2023-04-03T04:47:16;11.43;;;4.55;;
68940;SDS011;55982;51.476;7.552;2023-04-03T04:49:41;13.52;;;4.15;;
68940;SDS011;55982;51.476;7.552;2023-04-03T04:52:07;11.18;;;4.25;;
68940;SDS011;55982;51.476;7.552;2023-04-03T04:54:32;17.52;;;5.38;;
68940;SDS011;55982;51.476;7.552;2023-04-03T04:56:57;9.43;;;4.97;;
68940;SDS011;55982;51.476;7.552;2023-04-03T04:59:23;8.27;;;4.57;;
68940;SDS011;55982;51.476;7.552;2023-04-03T05:01:48;14.23;;;5.20;;
68940;SDS011;55982;51.476;7.552;2023-04-03T05:04:14;15.77;;;5.05;;
68940;SDS011;55982;51.476;7.552;2023-04-03T05:06:40;12.50;;;4.65;;
68940;SDS011;55982;51.476;7.552;2023-04-03T05:09:05;16.75;;;4.97;;
68940;SDS011;55982;51.476;7.552;2023-04-03T05:11:31;11.18;;;4.82;;
68940;SDS011;55982;51.476;7.552;2023-04-03T05:13:56;10.02;;;4.75;;
68940;SDS011;55982;51.476;7.552;2023-04-03T05:16:22;9.23;;;4.70;;
68940;SDS011;55982;51.476;7.552;2023-04-03T05:18:47;13.45;;;4.68;;
68940;SDS011;55982;51.476;7.552;2023-04-03T05:21:12;11.35;;;4.28;;
68940;SDS011;55982;51.476;7.552;2023-04-03T05:23:38;8.93;;;4.13;;
68940;SDS011;55982;51.476;7.552;2023-04-03T05:26:03;9.85;;;4.05;;
68940;SDS011;55982;51.476;7.552;2023-04-03T05:28:29;7.90;;;4.63;;
68940;SDS011;55982;51.476;7.552;2023-04-03T05:30:55;11.90;;;4.53;;
68940;SDS011;55982;51.476;7.552;2023-04-03T05:33:22;12.68;;;4.20;;
68940;SDS011;55982;51.476;7.552;2023-04-03T05:35:48;14.95;;;3.92;;
68940;SDS011;55982;51.476;7.552;2023-04-03T05:38:13;11.32;;;4.75;;
68940;SDS011;55982;51.476;7.552;2023-04-03T05:40:38;13.13;;;4.28;;
68940;SDS011;55982;51.476;7.552;2023-04-03T05:43:04;11.98;;;5.18;;
68940;SDS011;55982;51.476;7.552;2023-04-03T05:45:29;21.55;;;4.72;;
68940;SDS011;55982;51.476;7.552;2023-04-03T05:47:55;9.30;;;3.70;;
68940;SDS011;55982;51.476;7.552;2023-04-03T05:50:20;10.20;;;4.40;;
68940;SDS011;55982;51.476;7.552;2023-04-03T05:52:46;7.47;;;4.18;;
68940;SDS011;55982;51.476;7.552;2023-04-03T05:55:14;11.48;;;3.53;;
68940;SDS011;55982;51.476;7.552;2023-04-03T05:57:40;11.82;;;3.80;;
68940;SDS011;55982;51.476;7.552;2023-04-03T06:00:06;9.55;;;3.92;;
68940;SDS011;55982;51.476;7.552;2023-04-03T06:02:34;10.70;;;3.53;;
68940;SDS011;55982;51.476;7.552;2023-04-03T06:05:00;7.65;;;3.28;;
68940;SDS011;55982;51.476;7.552;2023-04-03T06:07:26;12.07;;;3.50;;
68940;SDS011;55982;51.476;7.552;2023-04-03T06:09:54;12.38;;;3.85;;
68940;SDS011;55982;51.476;7.552;2023-04-03T06:12:21;8.00;;;3.28;;
68940;SDS011;55982;51.476;7.552;2023-04-03T06:14:47;7.20;;;3.38;;
68940;SDS011;55982;51.476;7.552;2023-04-03T06:17:13;9.40;;;3.08;;
68940;SDS011;55982;51.476;7.552;2023-04-03T06:19:40;10.27;;;3.50;;
68940;SDS011;55982;51.476;7.552;2023-04-03T06:22:05;9.35;;;3.53;;
68940;SDS011;55982;51.476;7.552;2023-04-03T06:24:31;13.40;;;3.70;;
68940;SDS011;55982;51.476;7.552;2023-04-03T06:26:57;8.68;;;3.38;;
68940;SDS011;55982;51.476;7.552;2023-04-03T06:29:23;10.10;;;3.03;;
68940;SDS011;55982;51.476;7.552;2023-04-03T06:31:50;9.40;;;3.45;;
68940;SDS011;55982;51.476;7.552;2023-04-03T06:34:16;11.82;;;3.20;;
68940;SDS011;55982;51.476;7.552;2023-04-03T06:36:42;6.57;;;3.08;;
68940;SDS011;55982;51.476;7.552;2023-04-03T06:39:09;13.18;;;3.50;;
68940;SDS011;55982;51.476;7.552;2023-04-03T06:41:39;6.47;;;2.90;;
68940;SDS011;55982;51.476;7.552;2023-04-03T06:44:04;11.45;;;3.20;;
68940;SDS011;55982;51.476;7.552;2023-04-03T06:46:30;14.10;;;3.10;;
68940;SDS011;55982;51.476;7.552;2023-04-03T06:48:55;8.10;;;3.08;;
68940;SDS011;55982;51.476;7.552;2023-04-03T06:51:24;11.45;;;3.10;;
68940;SDS011;55982;51.476;7.552;2023-04-03T06:53:52;6.75;;;2.50;;
68940;SDS011;55982;51.476;7.552;2023-04-03T06:56:19;8.45;;;3.00;;
68940;SDS011;55982;51.476;7.552;2023-04-03T06:58:44;8.70;;;2.70;;
68940;SDS011;55982;51.476;7.552;2023-04-03T07:01:11;15.18;;;3.65;;
68940;SDS011;55982;51.476;7.552;2023-04-03T07:03:38;7.15;;;3.00;;
68940;SDS011;55982;51.476;7.552;2023-04-03T07:06:04;6.57;;;2.67;;
68940;SDS011;55982;51.476;7.552;2023-04-03T07:08:32;10.20;;;2.72;;
68940;SDS011;55982;51.476;7.552;2023-04-03T07:10:58;8.32;;;2.95;;
68940;SDS011;55982;51.476;7.552;2023-04-03T07:13:23;9.82;;;2.55;;
68940;SDS011;55982;51.476;7.552;2023-04-03T07:15:49;11.27;;;3.15;;
68940;SDS011;55982;51.476;7.552;2023-04-03T07:18:15;8.70;;;2.95;;
68940;SDS011;55982;51.476;7.552;2023-04-03T07:20:41;7.47;;;2.40;;
68940;SDS011;55982;51.476;7.552;2023-04-03T07:23:07;9.75;;;3.00;;
68940;SDS011;55982;51.476;7.552;2023-04-03T07:25:33;6.95;;;2.53;;
68940;SDS011;55982;51.476;7.552;2023-04-03T07:27:58;4.93;;;2.30;;
68940;SDS011;55982;51.476;7.552;2023-04-03T07:30:24;7.57;;;2.67;;
68940;SDS011;55982;51.476;7.552;2023-04-03T07:32:50;5.45;;;2.20;;
68940;SDS011;55982;51.476;7.552;2023-04-03T07:35:16;8.40;;;2.30;;
68940;SDS011;55982;51.476;7.552;2023-04-03T07:37:42;6.82;;;2.80;;
68940;SDS011;55982;51.476;7.552;2023-04-03T07:40:07;6.35;;;2.90;;
68940;SDS011;55982;51.476;7.552;2023-04-03T07:42:33;4.70;;;2.35;;
68940;SDS011;55982;51.476;7.552;2023-04-03T07:45:00;6.53;;;2.42;;
68940;SDS011;55982;51.476;7.552;2023-04-03T07:47:25;5.53;;;2.15;;
68940;SDS011;55982;51.476;7.552;2023-04-03T07:49:51;6.13;;;2.30;;
68940;SDS011;55982;51.476;7.552;2023-04-03T07:52:16;7.30;;;2.42;;
68940;SDS011;55982;51.476;7.552;2023-04-03T07:54:42;9.95;;;2.38;;
68940;SDS011;55982;51.476;7.552;2023-04-03T07:57:07;7.00;;;2.25;;
68940;SDS011;55982;51.476;7.552;2023-04-03T07:59:32;5.53;;;2.08;;
68940;SDS011;55982;51.476;7.552;2023-04-03T08:01:58;8.00;;;2.45;;
68940;SDS011;55982;51.476;7.552;2023-04-03T08:04:23;10.05;;;2.30;;
68940;SDS011;55982;51.476;7.552;2023-04-03T08:06:51;6.15;;;2.17;;
68940;SDS011;55982;51.476;7.552;2023-04-03T08:09:16;6.03;;;2.13;;
68940;SDS011;55982;51.476;7.552;2023-04-03T08:11:42;4.90;;;1.90;;
68940;SDS011;55982;51.476;7.552;2023-04-03T08:14:07;4.40;;;2.13;;
68940;SDS011;55982;51.476;7.552;2023-04-03T08:16:33;12.60;;;2.38;;
68940;SDS011;55982;51.476;7.552;2023-04-03T08:18:58;8.65;;;2.05;;
68940;SDS011;55982;51.476;7.552;2023-04-03T08:21:24;4.18;;;1.80;;
68940;SDS011;55982;51.476;7.552;2023-04-03T08:23:50;8.00;;;2.47;;
68940;SDS011;55982;51.476;7.552;2023-04-03T08:26:17;4.78;;;1.58;;
68940;SDS011;55982;51.476;7.552;2023-04-03T08:28:45;9.40;;;2.45;;
68940;SDS011;55982;51.476;7.552;2023-04-03T08:31:12;5.55;;;2.08;;
68940;SDS011;55982;51.476;7.552;2023-04-03T08:33:40;8.88;;;2.67;;
68940;SDS011;55982;51.476;7.552;2023-04-03T08:36:07;5.88;;;2.25;;
68940;SDS011;55982;51.476;7.552;2023-04-03T08:38:40;8.52;;;2.30;;
68940;SDS011;55982;51.476;7.552;2023-04-03T08:41:11;6.25;;;2.10;;
68940;SDS011;55982;51.476;7.552;2023-04-03T08:46:25;5.53;;;2.08;;
68940;SDS011;55982;51.476;7.552;2023-04-03T08:51:25;5.77;;;1.80;;
68940;SDS011;55982;51.476;7.552;2023-04-03T08:56:29;3.35;;;1.92;;
68940;SDS011;55982;51.476;7.552;2023-04-03T08:59:06;5.32;;;1.95;;
68940;SDS011;55982;51.476;7.552;2023-04-03T09:01:40;7.45;;;2.08;;
68940;SDS011;55982;51.476;7.552;2023-04-03T09:04:13;4.80;;;1.65;;
68940;SDS011;55982;51.476;7.552;2023-04-03T09:06:44;4.80;;;2.08;;
68940;SDS011;55982;51.476;7.552;2023-04-03T09:09:29;7.00;;;2.25;;
68940;SDS011;55982;51.476;7.552;2023-04-03T09:12:06;6.00;;;1.80;;
68940;SDS011;55982;51.476;7.552;2023-04-03T09:14:39;9.40;;;1.83;;
68940;SDS011;55982;51.476;7.552;2023-04-03T09:22:45;5.40;;;2.20;;
68940;SDS011;55982;51.476;7.552;2023-04-03T09:25:18;3.15;;;1.75;;
68940;SDS011;55982;51.476;7.552;2023-04-03T09:30:16;5.10;;;1.83;;
68940;SDS011;55982;51.476;7.552;2023-04-03T09:32:53;6.00;;;1.83;;
68940;SDS011;55982;51.476;7.552;2023-04-03T09:35:21;6.18;;;1.85;;
68940;SDS011;55982;51.476;7.552;2023-04-03T09:38:01;4.82;;;1.60;;
68940;SDS011;55982;51.476;7.552;2023-04-03T09:40:49;4.37;;;1.40;;
68940;SDS011;55982;51.476;7.552;2023-04-03T09:43:51;8.13;;;1.70;;
68940;SDS011;55982;51.476;7.552;2023-04-03T09:46:28;3.50;;;1.55;;
68940;SDS011;55982;51.476;7.552;2023-04-03T09:48:59;3.85;;;1.60;;
68940;SDS011;55982;51.476;7.552;2023-04-03T09:51:27;3.50;;;1.80;;
68940;SDS011;55982;51.476;7.552;2023-04-03T09:53:54;6.78;;;2.00;;
68940;SDS011;55982;51.476;7.552;2023-04-03T09:56:26;6.85;;;1.75;;
68940;SDS011;55982;51.476;7.552;2023-04-03T10:01:26;5.68;;;1.80;;
68940;SDS011;55982;51.476;7.552;2023-04-03T10:06:33;4.50;;;1.27;;
68940;SDS011;55982;51.476;7.552;2023-04-03T10:09:02;3.63;;;1.60;;
68940;SDS011;55982;51.476;7.552;2023-04-03T10:11:30;1.85;;;1.25;;
68940;SDS011;55982;51.476;7.552;2023-04-03T10:13:59;3.15;;;1.33;;
68940;SDS011;55982;51.476;7.552;2023-04-03T10:21:48;5.63;;;1.90;;
68940;SDS011;55982;51.476;7.552;2023-04-03T10:27:13;3.70;;;1.10;;
68940;SDS011;55982;51.476;7.552;2023-04-03T10:29:53;3.72;;;1.02;;
68940;SDS011;55982;51.476;7.552;2023-04-03T10:40:40;1.90;;;1.10;;
68940;SDS011;55982;51.476;7.552;2023-04-03T10:45:45;3.42;;;1.08;;
68940;SDS011;55982;51.476;7.552;2023-04-03T10:48:36;2.85;;;1.00;;
68940;SDS011;55982;51.476;7.552;2023-04-03T10:51:22;3.75;;;0.95;;
68940;SDS011;55982;51.476;7.552;2023-04-03T10:56:43;5.97;;;1.02;;
68940;SDS011;55982;51.476;7.552;2023-04-03T10:59:32;3.83;;;1.13;;
68940;SDS011;55982;51.476;7.552;2023-04-03T11:02:10;4.15;;;1.38;;
68940;SDS011;55982;51.476;7.552;2023-04-03T11:10:40;5.63;;;1.00;;
68940;SDS011;55982;51.476;7.552;2023-04-03T11:13:21;3.38;;;1.30;;
68940;SDS011;55982;51.476;7.552;2023-04-03T11:15:51;2.58;;;1.13;;
68940;SDS011;55982;51.476;7.552;2023-04-03T11:18:22;2.92;;;1.13;;
68940;SDS011;55982;51.476;7.552;2023-04-03T11:21:00;2.67;;;1.00;;
68940;SDS011;55982;51.476;7.552;2023-04-03T11:23:32;2.08;;;1.00;;
68940;SDS011;55982;51.476;7.552;2023-04-03T11:26:07;2.90;;;1.00;;
68940;SDS011;55982;51.476;7.552;2023-04-03T11:28:36;3.97;;;1.00;;
68940;SDS011;55982;51.476;7.552;2023-04-03T11:36:52;5.05;;;1.27;;
68940;SDS011;55982;51.476;7.552;2023-04-03T11:44:48;2.58;;;0.90;;
68940;SDS011;55982;51.476;7.552;2023-04-03T11:47:43;3.25;;;1.25;;
68940;SDS011;55982;51.476;7.552;2023-04-03T11:50:32;4.57;;;1.33;;
68940;SDS011;55982;51.476;7.552;2023-04-03T12:05:53;1.92;;;0.90;;
68940;SDS011;55982;51.476;7.552;2023-04-03T12:16:07;4.07;;;1.02;;
68940;SDS011;55982;51.476;7.552;2023-04-03T12:19:30;2.67;;;0.80;;
68940;SDS011;55982;51.476;7.552;2023-04-03T12:31:44;2.47;;;1.20;;
68940;SDS011;55982;51.476;7.552;2023-04-03T12:37:09;2.80;;;1.20;;
68940;SDS011;55982;51.476;7.552;2023-04-03T12:45:22;5.40;;;1.33;;
68940;SDS011;55982;51.476;7.552;2023-04-03T12:47:49;1.90;;;1.10;;
68940;SDS011;55982;51.476;7.552;2023-04-03T12:50:21;2.03;;;1.08;;
68940;SDS011;55982;51.476;7.552;2023-04-03T12:52:54;6.30;;;1.40;;
68940;SDS011;55982;51.476;7.552;2023-04-03T12:55:21;3.17;;;1.20;;
68940;SDS011;55982;51.476;7.552;2023-04-03T12:57:47;2.88;;;1.00;;
68940;SDS011;55982;51.476;7.552;2023-04-03T13:00:34;8.68;;;1.23;;
68940;SDS011;55982;51.476;7.552;2023-04-03T13:03:03;5.32;;;1.13;;
68940;SDS011;55982;51.476;7.552;2023-04-03T13:05:31;1.95;;;1.35;;
68940;SDS011;55982;51.476;7.552;2023-04-03T13:08:01;3.03;;;1.35;;
68940;SDS011;55982;51.476;7.552;2023-04-03T13:10:29;2.83;;;1.20;;
68940;SDS011;55982;51.476;7.552;2023-04-03T13:12:57;4.28;;;1.52;;
68940;SDS011;55982;51.476;7.552;2023-04-03T13:15:44;3.17;;;1.33;;
68940;SDS011;55982;51.476;7.552;2023-04-03T13:21:17;3.35;;;1.10;;
68940;SDS011;55982;51.476;7.552;2023-04-03T13:23:47;3.15;;;1.23;;
68940;SDS011;55982;51.476;7.552;2023-04-03T13:26:16;3.85;;;1.30;;
68940;SDS011;55982;51.476;7.552;2023-04-03T13:28:44;3.65;;;1.42;;
68940;SDS011;55982;51.476;7.552;2023-04-03T13:33:39;3.60;;;1.40;;
68940;SDS011;55982;51.476;7.552;2023-04-03T13:36:18;2.42;;;1.05;;
68940;SDS011;55982;51.476;7.552;2023-04-03T13:38:46;4.30;;;1.20;;
68940;SDS011;55982;51.476;7.552;2023-04-03T13:41:26;4.47;;;1.10;;
68940;SDS011;55982;51.476;7.552;2023-04-03T13:46:46;2.33;;;1.17;;
68940;SDS011;55982;51.476;7.552;2023-04-03T13:52:01;5.32;;;1.40;;
68940;SDS011;55982;51.476;7.552;2023-04-03T13:54:47;2.92;;;1.23;;
68940;SDS011;55982;51.476;7.552;2023-04-03T13:57:19;2.58;;;1.10;;
68940;SDS011;55982;51.476;7.552;2023-04-03T13:59:44;3.35;;;1.10;;
68940;SDS011;55982;51.476;7.552;2023-04-03T14:02:18;2.60;;;1.13;;
68940;SDS011;55982;51.476;7.552;2023-04-03T14:04:52;3.75;;;1.35;;
68940;SDS011;55982;51.476;7.552;2023-04-03T14:07:23;1.48;;;1.27;;
68940;SDS011;55982;51.476;7.552;2023-04-03T14:09:49;3.92;;;1.20;;
68940;SDS011;55982;51.476;7.552;2023-04-03T14:12:16;3.63;;;1.10;;
68940;SDS011;55982;51.476;7.552;2023-04-03T14:14:50;2.90;;;1.02;;
68940;SDS011;55982;51.476;7.552;2023-04-03T14:17:19;4.40;;;1.50;;
68940;SDS011;55982;51.476;7.552;2023-04-03T14:19:48;2.78;;;1.38;;
68940;SDS011;55982;51.476;7.552;2023-04-03T14:22:20;3.72;;;1.30;;
68940;SDS011;55982;51.476;7.552;2023-04-03T14:24:48;3.00;;;1.17;;
68940;SDS011;55982;51.476;7.552;2023-04-03T14:27:20;4.28;;;1.30;;
68940;SDS011;55982;51.476;7.552;2023-04-03T14:29:52;3.80;;;1.40;;
68940;SDS011;55982;51.476;7.552;2023-04-03T14:32:19;3.58;;;1.70;;
68940;SDS011;55982;51.476;7.552;2023-04-03T14:34:46;3.30;;;1.20;;
68940;SDS011;55982;51.476;7.552;2023-04-03T14:37:13;3.30;;;1.58;;
68940;SDS011;55982;51.476;7.552;2023-04-03T14:39:41;7.90;;;1.40;;
68940;SDS011;55982;51.476;7.552;2023-04-03T14:42:12;4.88;;;1.58;;
68940;SDS011;55982;51.476;7.552;2023-04-03T14:44:46;2.58;;;1.60;;
68940;SDS011;55982;51.476;7.552;2023-04-03T14:47:15;4.57;;;1.65;;
68940;SDS011;55982;51.476;7.552;2023-04-03T14:49:44;3.88;;;1.33;;
68940;SDS011;55982;51.476;7.552;2023-04-03T14:52:16;3.83;;;1.80;;
68940;SDS011;55982;51.476;7.552;2023-04-03T14:54:47;4.93;;;1.52;;
68940;SDS011;55982;51.476;7.552;2023-04-03T14:57:13;5.00;;;1.73;;
68940;SDS011;55982;51.476;7.552;2023-04-03T14:59:40;6.75;;;1.80;;
68940;SDS011;55982;51.476;7.552;2023-04-03T15:02:48;3.90;;;1.63;;
68940;SDS011;55982;51.476;7.552;2023-04-03T15:04:55;6.38;;;1.70;;
68940;SDS011;55982;51.476;7.552;2023-04-03T15:07:21;8.13;;;1.73;;
68940;SDS011;55982;51.476;7.552;2023-04-03T15:09:48;3.88;;;1.50;;
68940;SDS011;55982;51.476;7.552;2023-04-03T15:12:14;3.33;;;1.45;;
68940;SDS011;55982;51.476;7.552;2023-04-03T15:14:40;3.63;;;1.85;;
68940;SDS011;55982;51.476;7.552;2023-04-03T15:17:05;4.13;;;1.58;;
68940;SDS011;55982;51.476;7.552;2023-04-03T15:19:38;3.97;;;1.63;;
68940;SDS011;55982;51.476;7.552;2023-04-03T15:22:04;4.28;;;1.40;;
68940;SDS011;55982;51.476;7.552;2023-04-03T15:24:30;2.97;;;1.80;;
68940;SDS011;55982;51.476;7.552;2023-04-03T15:26:55;4.63;;;1.35;;
68940;SDS011;55982;51.476;7.552;2023-04-03T15:29:21;3.40;;;1.55;;
68940;SDS011;55982;51.476;7.552;2023-04-03T15:31:46;3.72;;;1.50;;
68940;SDS011;55982;51.476;7.552;2023-04-03T15:34:11;4.72;;;1.75;;
68940;SDS011;55982;51.476;7.552;2023-04-03T15:36:39;4.95;;;1.98;;
68940;SDS011;55982;51.476;7.552;2023-04-03T15:39:05;9.05;;;1.67;;
68940;SDS011;55982;51.476;7.552;2023-04-03T15:41:30;4.50;;;1.58;;
68940;SDS011;55982;51.476;7.552;2023-04-03T15:43:55;5.70;;;1.70;;
68940;SDS011;55982;51.476;7.552;2023-04-03T15:46:21;5.28;;;1.65;;
68940;SDS011;55982;51.476;7.552;2023-04-03T15:48:47;3.53;;;1.50;;
68940;SDS011;55982;51.476;7.552;2023-04-03T15:51:12;5.20;;;1.52;;
68940;SDS011;55982;51.476;7.552;2023-04-03T15:53:37;3.92;;;1.65;;
68940;SDS011;55982;51.476;7.552;2023-04-03T15:56:03;5.90;;;1.67;;
68940;SDS011;55982;51.476;7.552;2023-04-03T15:58:29;5.72;;;1.30;;
68940;SDS011;55982;51.476;7.552;2023-04-03T16:00:55;5.30;;;1.65;;
68940;SDS011;55982;51.476;7.552;2023-04-03T16:03:20;6.68;;;1.67;;
68940;SDS011;55982;51.476;7.552;2023-04-03T16:05:47;4.75;;;1.60;;
68940;SDS011;55982;51.476;7.552;2023-04-03T16:08:12;2.92;;;1.30;;
68940;SDS011;55982;51.476;7.552;2023-04-03T16:10:39;5.10;;;1.45;;
68940;SDS011;55982;51.476;7.552;2023-04-03T16:13:05;3.75;;;1.50;;
68940;SDS011;55982;51.476;7.552;2023-04-03T16:15:31;4.03;;;1.50;;
68940;SDS011;55982;51.476;7.552;2023-04-03T16:17:58;2.70;;;1.60;;
68940;SDS011;55982;51.476;7.552;2023-04-03T16:20:24;3.90;;;1.63;;
68940;SDS011;55982;51.476;7.552;2023-04-03T16:22:50;4.55;;;1.60;;
68940;SDS011;55982;51.476;7.552;2023-04-03T16:25:16;3.50;;;1.63;;
68940;SDS011;55982;51.476;7.552;2023-04-03T16:27:42;2.78;;;1.30;;
68940;SDS011;55982;51.476;7.552;2023-04-03T16:30:07;3.35;;;1.27;;
68940;SDS011;55982;51.476;7.552;2023-04-03T16:32:33;4.30;;;1.10;;
68940;SDS011;55982;51.476;7.552;2023-04-03T16:34:59;3.53;;;1.48;;
68940;SDS011;55982;51.476;7.552;2023-04-03T16:37:25;2.22;;;1.50;;
68940;SDS011;55982;51.476;7.552;2023-04-03T16:39:50;2.60;;;1.50;;
68940;SDS011;55982;51.476;7.552;2023-04-03T16:42:16;4.85;;;1.85;;
68940;SDS011;55982;51.476;7.552;2023-04-03T16:44:41;4.13;;;2.03;;
68940;SDS011;55982;51.476;7.552;2023-04-03T16:47:06;3.35;;;1.30;;
68940;SDS011;55982;51.476;7.552;2023-04-03T16:49:32;5.25;;;1.75;;
68940;SDS011;55982;51.476;7.552;2023-04-03T16:51:59;6.32;;;1.92;;